Time;durP1;ratioP1;P1;durP2;ratioP2;P2;SDS_P1;SDS_P2;PMS_P1;PMS_P2;Temp;Humidity;BMP_temperature;BMP_pressure;BME280_temperature;BME280_humidity;BME280_pressure;Samples;Min_cycle;Max_cycle;Signal;HPM_P1;HPM_P2
2022/05/26 00:02:26;;;;;;;50.40;30.67;;;;;;;18.98;100.00;62830.25;5093991;28;20658;-73
2022/05/26 00:04:53;;;;;;;47.17;28.60;;;;;;;18.96;100.00;62822.94;5094057;28;20650;-75
2022/05/26 00:07:20;;;;;;;51.77;29.90;;;;;;;19.08;100.00;62846.22;5093864;28;20666;-72
2022/05/26 00:09:49;;;;;;;47.60;29.07;;;;;;;19.10;100.00;62845.81;5094165;28;20195;-72
2022/05/26 00:12:19;;;;;;;46.60;29.07;;;;;;;19.13;100.00;62849.06;5093869;28;20195;-75
2022/05/26 00:14:47;;;;;;;45.50;29.53;;;;;;;19.02;100.00;62834.59;5094020;28;20722;-73
2022/05/26 00:17:14;;;;;;;48.00;28.37;;;;;;;18.97;100.00;62831.78;5093922;28;20196;-76
2022/05/26 00:19:43;;;;;;;48.57;29.43;;;;;;;18.82;100.00;62812.97;5093888;28;20200;-74
2022/05/26 00:22:10;;;;;;;55.77;31.00;;;;;;;18.89;100.00;62820.56;5093722;28;20196;-74
2022/05/26 00:24:37;;;;;;;56.63;32.10;;;;;;;18.87;100.00;62817.84;5093483;28;20227;-73
2022/05/26 00:27:04;;;;;;;50.93;29.93;;;;;;;18.87;100.00;62823.56;5093376;28;20204;-75
2022/05/26 00:29:34;;;;;;;54.93;30.53;;;;;;;18.91;100.00;62822.72;5093870;28;20191;-74
2022/05/26 00:32:01;;;;;;;56.07;30.47;;;;;;;18.93;100.00;62824.88;5093624;28;20199;-74
2022/05/26 00:34:28;;;;;;;53.07;29.33;;;;;;;19.02;100.00;62831.47;5092211;28;20195;-72
2022/05/26 00:36:55;;;;;;;49.50;29.87;;;;;;;18.93;100.00;62830.03;5093738;28;20261;-73
2022/05/26 00:39:23;;;;;;;48.60;29.40;;;;;;;18.97;100.00;62834.34;5094582;28;20731;-77
2022/05/26 00:41:54;;;;;;;49.13;29.57;;;;;;;18.63;100.00;62797.09;5096181;28;20379;-75
2022/05/26 00:44:22;;;;;;;47.93;29.70;;;;;;;18.80;100.00;62813.41;5093748;28;20281;-73
2022/05/26 00:46:55;;;;;;;48.27;28.30;;;;;;;18.79;100.00;62809.22;5093819;28;20203;-72
2022/05/26 00:49:27;;;;;;;48.87;29.23;;;;;;;18.63;100.00;62789.91;5093557;28;20195;-72
2022/05/26 00:51:56;;;;;;;48.40;30.50;;;;;;;18.72;100.00;62802.19;5093515;28;20207;-74
2022/05/26 00:54:28;;;;;;;50.13;30.63;;;;;;;18.66;100.00;62793.13;5094307;28;20237;-71
2022/05/26 00:57:02;;;;;;;58.03;32.10;;;;;;;18.73;100.00;62808.44;5097657;28;20196;-76
2022/05/26 00:59:39;;;;;;;50.07;31.67;;;;;;;18.65;100.00;62794.63;5093402;28;20654;-75
2022/05/26 01:02:08;;;;;;;55.10;30.67;;;;;;;18.69;100.00;62798.41;5093019;28;20256;-74
2022/05/26 01:04:41;;;;;;;46.83;29.60;;;;;;;18.81;100.00;62809.34;5093165;28;20262;-72
2022/05/26 01:07:15;;;;;;;46.50;29.20;;;;;;;18.77;100.00;62809.63;5093140;28;20229;-74
2022/05/26 01:09:42;;;;;;;50.13;29.80;;;;;;;18.72;100.00;62806.81;5093443;28;20198;-74
2022/05/26 01:12:09;;;;;;;49.53;29.80;;;;;;;18.67;100.00;62791.63;5093044;28;20199;-74
2022/05/26 01:14:40;;;;;;;48.30;29.30;;;;;;;18.69;100.00;62798.97;5092814;28;20195;-73
2022/05/26 01:17:21;;;;;;;45.27;29.13;;;;;;;18.57;100.00;62780.84;5091087;28;20295;-76
2022/05/26 01:20:24;;;;;;;48.73;30.57;;;;;;;18.57;100.00;62786.00;5092957;28;20192;-73
2022/05/26 01:23:28;;;;;;;48.23;29.53;;;;;;;18.55;100.00;62784.38;5092733;28;20256;-72
2022/05/26 01:26:36;;;;;;;46.73;31.13;;;;;;;18.60;100.00;62788.69;5061415;28;20223;-73
2022/05/26 01:29:44;;;;;;;46.57;29.90;;;;;;;18.42;100.00;62764.63;5064289;28;20195;-75
2022/05/26 01:32:22;;;;;;;43.73;27.97;;;;;;;18.68;100.00;62797.88;5092305;28;20225;-75
2022/05/26 01:34:59;;;;;;;53.93;31.97;;;;;;;18.62;100.00;62788.81;5074324;28;20231;-75
2022/05/26 01:37:33;;;;;;;50.70;29.07;;;;;;;18.62;100.00;62786.22;5072229;28;20192;-74
2022/05/26 01:40:12;;;;;;;57.20;30.80;;;;;;;18.70;100.00;62800.03;5071980;28;20627;-75
2022/05/26 01:42:58;;;;;;;46.53;29.67;;;;;;;18.63;100.00;62792.47;5072139;28;20228;-74
2022/05/26 01:45:34;;;;;;;56.77;31.93;;;;;;;18.20;100.00;62746.03;5071814;28;20282;-76
2022/05/26 01:48:13;;;;;;;49.23;30.60;;;;;;;18.38;100.00;62770.63;5071901;28;20192;-73
2022/05/26 01:50:44;;;;;;;53.80;31.77;;;;;;;18.43;100.00;62773.47;5083506;28;20573;-73
2022/05/26 01:53:26;;;;;;;51.80;30.80;;;;;;;18.43;100.00;62776.03;5092226;28;20244;-73
2022/05/26 01:55:59;;;;;;;56.07;32.07;;;;;;;18.38;100.00;62770.63;5074360;28;20211;-73
2022/05/26 01:58:34;;;;;;;50.70;31.60;;;;;;;18.04;100.00;62736.50;5092235;28;20298;-74
2022/05/26 02:01:07;;;;;;;47.77;30.77;;;;;;;18.33;100.00;62762.66;5092155;28;20199;-73
2022/05/26 02:03:39;;;;;;;55.67;31.40;;;;;;;18.13;100.00;62743.66;5091936;28;20204;-74
2022/05/26 02:06:13;;;;;;;52.63;33.30;;;;;;;18.34;100.00;62761.69;5091870;28;20227;-74
2022/05/26 02:08:45;;;;;;;54.43;33.37;;;;;;;18.09;100.00;62739.31;5092034;28;20191;-75
2022/05/26 02:11:16;;;;;;;53.87;32.67;;;;;;;17.84;100.00;62707.19;5091486;28;20200;-74
2022/05/26 02:13:48;;;;;;;54.67;33.63;;;;;;;18.11;100.00;62736.31;5092257;28;20203;-74
2022/05/26 02:16:19;;;;;;;49.13;32.70;;;;;;;18.19;100.00;62742.38;5092042;28;20199;-74
2022/05/26 02:18:54;;;;;;;52.93;32.13;;;;;;;18.04;100.00;62733.91;5092006;28;20557;-72
2022/05/26 02:21:27;;;;;;;57.13;36.77;;;;;;;17.99;100.00;62723.38;5091765;28;20742;-75
2022/05/26 02:24:03;;;;;;;56.67;36.60;;;;;;;17.89;100.00;62712.59;5092134;28;20199;-76
2022/05/26 02:26:31;;;;;;;50.50;32.97;;;;;;;17.32;100.00;62651.63;5071596;28;20223;-73
2022/05/26 02:31:44;;;;;;;53.87;33.20;;;;;;;17.59;100.00;62681.28;5071535;28;20203;-76
2022/05/26 02:34:15;;;;;;;55.83;33.80;;;;;;;17.47;100.00;62673.47;5071460;28;20196;-75
2022/05/26 02:36:44;;;;;;;58.73;34.27;;;;;;;17.41;100.00;62661.31;5071538;28;20232;-75
2022/05/26 02:39:11;;;;;;;60.07;35.10;;;;;;;17.42;100.00;62662.94;5071570;28;20693;-75
2022/05/26 02:41:41;;;;;;;58.60;34.50;;;;;;;17.26;100.00;62647.72;5071513;28;20232;-75
2022/05/26 02:44:11;;;;;;;61.13;35.83;;;;;;;17.62;100.00;62684.53;5071462;28;20751;-75
2022/05/26 02:46:49;;;;;;;62.47;35.30;;;;;;;17.60;100.00;62687.53;5071036;28;20667;-76
2022/05/26 02:49:30;;;;;;;61.53;35.47;;;;;;;17.68;100.00;62691.00;5071405;28;20196;-74
2022/05/26 02:52:06;;;;;;;57.17;34.17;;;;;;;17.44;100.00;62667.69;5071201;28;20259;-74
2022/05/26 02:54:45;;;;;;;59.80;34.53;;;;;;;17.68;100.00;62690.47;5071262;28;20625;-74
2022/05/26 02:57:24;;;;;;;57.10;33.03;;;;;;;17.45;100.00;62668.75;5071597;28;20223;-74
2022/05/26 03:00:00;;;;;;;59.83;36.10;;;;;;;17.40;100.00;62658.22;5073143;28;20202;-73
2022/05/26 03:02:37;;;;;;;63.27;34.93;;;;;;;16.92;100.00;62614.19;5091804;28;20677;-75
2022/05/26 03:05:12;;;;;;;53.53;34.17;;;;;;;17.37;100.00;62660.13;5091149;28;20227;-74
2022/05/26 03:07:43;;;;;;;62.50;34.30;;;;;;;17.45;100.00;62668.75;5091433;28;20199;-72
2022/05/26 03:10:11;;;;;;;50.60;32.70;;;;;;;17.43;100.00;62663.47;5091532;28;20208;-74
2022/05/26 03:12:39;;;;;;;50.27;32.67;;;;;;;17.28;100.00;62649.88;5091710;28;20206;-75
2022/05/26 03:15:09;;;;;;;59.87;34.60;;;;;;;17.18;100.00;62639.66;5090126;28;20196;-74
2022/05/26 03:17:37;;;;;;;58.23;33.63;;;;;;;17.23;100.00;62645.03;5091473;28;20196;-75
2022/05/26 03:20:07;;;;;;;58.73;33.43;;;;;;;17.24;100.00;62648.69;5091380;28;20272;-71
2022/05/26 03:22:33;;;;;;;63.43;33.90;;;;;;;16.83;100.00;62599.88;5091178;28;20257;-73
2022/05/26 03:25:00;;;;;;;54.47;33.47;;;;;;;17.23;100.00;62647.06;5091203;28;20223;-74
2022/05/26 03:27:28;;;;;;;53.67;32.93;;;;;;;17.47;100.00;62668.34;5090987;28;20269;-73
2022/05/26 03:29:56;;;;;;;54.30;33.10;;;;;;;17.53;100.00;62674.81;5072886;28;20202;-72
2022/05/26 03:32:24;;;;;;;60.17;34.90;;;;;;;17.52;100.00;62671.19;5091146;28;20234;-75
2022/05/26 03:43:07;;;;;;;60.97;36.93;;;;;;;16.88;100.00;62604.72;5095162;28;20258;-71
2022/05/26 03:45:36;;;;;;;58.50;36.13;;;;;;;17.11;100.00;62629.50;5094459;28;20235;-77
2022/05/26 03:48:04;;;;;;;56.40;34.37;;;;;;;17.42;100.00;62668.09;5094670;28;20204;-74
2022/05/26 03:50:33;;;;;;;62.30;34.57;;;;;;;17.51;100.00;62675.25;5094448;28;20250;-74
2022/05/26 03:53:02;;;;;;;64.10;35.50;;;;;;;17.52;100.00;62678.91;5094038;28;20199;-74
2022/05/26 03:55:29;;;;;;;61.03;36.53;;;;;;;17.59;100.00;62681.28;5094250;28;20615;-75
2022/05/26 03:57:57;;;;;;;61.97;36.57;;;;;;;17.52;100.00;62673.75;5094466;28;20195;-74
2022/05/26 04:00:25;;;;;;;63.27;36.60;;;;;;;17.35;100.00;62655.41;5094247;28;20276;-75
2022/05/26 04:02:52;;;;;;;72.20;37.03;;;;;;;17.59;100.00;62683.88;5094407;28;20203;-73
2022/05/26 04:05:19;;;;;;;69.40;37.07;;;;;;;17.27;100.00;62644.19;5094112;28;20292;-72
2022/05/26 04:07:48;;;;;;;70.33;37.63;;;;;;;17.53;100.00;62679.97;5094193;28;20667;-74
2022/05/26 04:10:17;;;;;;;65.67;36.23;;;;;;;17.61;100.00;62686.03;5093726;28;20191;-73
2022/05/26 04:12:44;;;;;;;60.37;36.87;;;;;;;17.71;100.00;62693.69;5093965;28;20253;-74
2022/05/26 04:15:13;;;;;;;55.23;34.43;;;;;;;16.96;100.00;62612.81;5093981;28;20226;-74
2022/05/26 04:17:41;;;;;;;59.17;36.03;;;;;;;17.78;100.00;62703.28;5094246;28;20196;-73
2022/05/26 04:20:11;;;;;;;60.07;35.97;;;;;;;17.61;100.00;62683.44;5094413;28;20253;-72
2022/05/26 04:22:38;;;;;;;62.60;34.63;;;;;;;17.96;100.00;62720.13;5093985;28;20623;-74
2022/05/26 04:25:07;;;;;;;55.37;34.43;;;;;;;17.64;100.00;62691.84;5075638;28;20644;-74
2022/05/26 04:27:36;;;;;;;65.60;35.80;;;;;;;17.55;100.00;62674.41;5093706;28;20199;-73
2022/05/26 04:30:03;;;;;;;54.07;33.63;;;;;;;17.77;100.00;62705.31;5093785;28;20708;-75
2022/05/26 04:32:31;;;;;;;58.97;33.70;;;;;;;17.80;100.00;62708.03;5093877;28;20203;-73
2022/05/26 04:34:58;;;;;;;55.60;33.30;;;;;;;17.64;100.00;62689.28;5093493;28;20243;-73
2022/05/26 04:37:27;;;;;;;56.33;33.30;;;;;;;18.06;100.00;62730.94;5093410;28;20618;-73
2022/05/26 04:39:55;;;;;;;51.83;34.03;;;;;;;18.18;100.00;62743.88;5093433;28;20199;-74
2022/05/26 04:42:23;;;;;;;63.93;33.17;;;;;;;18.23;100.00;62749.81;5093403;28;20330;-73
2022/05/26 04:44:51;;;;;;;66.23;34.07;;;;;;;18.44;100.00;62774.53;5093697;28;20585;-74
2022/05/26 04:47:19;;;;;;;52.73;32.23;;;;;;;18.40;100.00;62767.63;5093442;28;20277;-74
2022/05/26 04:49:46;;;;;;;58.67;31.87;;;;;;;18.39;100.00;62771.72;5093824;28;20230;-76
2022/05/26 04:52:16;;;;;;;61.53;30.73;;;;;;;18.51;100.00;62779.53;5091813;28;20200;-74
2022/05/26 04:54:44;;;;;;;52.93;29.93;;;;;;;18.63;100.00;62795.06;5093495;28;20199;-72
2022/05/26 04:57:11;;;;;;;56.53;30.73;;;;;;;18.82;100.00;62812.97;5093401;28;20231;-74
2022/05/26 04:59:41;;;;;;;53.70;29.90;;;;;;;18.75;100.00;62802.31;5092971;28;20594;-75
2022/05/26 05:02:12;;;;;;;58.27;30.30;;;;;;;19.07;100.00;62840.00;5095445;28;20204;-72
2022/05/26 05:04:41;;;;;;;50.77;29.67;;;;;;;18.24;100.00;62750.34;5094557;28;20215;-74
2022/05/26 05:07:12;;;;;;;49.93;31.00;;;;;;;19.04;100.00;62833.63;5092906;28;20231;-73
2022/05/26 05:09:41;;;;;;;52.43;31.63;;;;;;;19.29;100.00;62863.75;5092598;28;20203;-76
2022/05/26 05:12:12;;;;;;;54.23;30.47;;;;;;;19.70;100.00;62904.41;5092877;28;20256;-73
2022/05/26 05:14:42;;;;;;;59.80;31.13;;;;;;;19.68;100.00;62907.94;5092873;28;20231;-73
2022/05/26 05:17:10;;;;;;;48.37;31.27;;;;;;;19.92;100.00;62931.31;5092765;28;20198;-75
2022/05/26 05:19:38;;;;;;;48.87;30.87;;;;;;;20.01;100.00;62940.50;5092808;28;20269;-74
2022/05/26 05:22:09;;;;;;;51.73;29.90;;;;;;;20.53;100.00;63001.91;5092890;28;20203;-73
2022/05/26 05:24:41;;;;;;;48.50;29.70;;;;;;;20.83;100.00;63029.19;5092796;28;20195;-73
2022/05/26 05:27:14;;;;;;;61.10;31.87;;;;;;;21.07;100.00;63056.69;5092502;28;20231;-73
2022/05/26 05:29:42;;;;;;;46.27;29.10;;;;;;;21.39;100.00;63093.94;5093094;28;20199;-73
2022/05/26 05:32:16;;;;;;;57.07;29.57;;;;;;;21.46;100.00;63096.31;5092444;28;20191;-74
2022/05/26 05:34:49;;;;;;;44.57;27.30;;;;;;;21.60;100.00;63106.81;5092690;28;20209;-74
2022/05/26 05:37:16;;;;;;;46.53;27.83;;;;;;;21.58;100.00;63109.28;5092314;28;20289;-73
2022/05/26 05:39:42;;;;;;;50.23;25.93;;;;;;;21.99;100.00;63153.72;5092688;28;20343;-74
2022/05/26 05:42:10;;;;;;;45.13;24.17;;;;;;;22.27;100.00;63183.50;5090813;28;20613;-75
2022/05/26 05:44:37;;;;;;;35.10;23.80;;;;;;;22.51;100.00;63209.50;5092326;28;20316;-73
2022/05/26 05:47:05;;;;;;;44.40;25.23;;;;;;;22.74;100.00;63228.72;5092043;28;20612;-74
2022/05/26 05:49:33;;;;;;;46.40;27.27;;;;;;;22.90;100.00;63253.84;5092085;28;20195;-73
2022/05/26 05:52:09;;;;;;;58.70;31.43;;;;;;;22.73;100.00;63232.81;5074088;28;20651;-73
2022/05/26 05:54:37;;;;;;;53.40;32.83;;;;;;;22.27;100.00;63184.03;5092813;28;20259;-76
2022/05/26 05:57:05;;;;;;;62.77;33.20;;;;;;;22.12;100.00;63167.78;5092421;28;20207;-73
2022/05/26 05:59:31;;;;;;;52.43;29.50;;;;;;;22.68;100.00;63231.06;5092595;28;20298;-75
2022/05/26 06:01:58;;;;;;;51.43;31.40;;;;;;;22.83;100.00;63238.44;5091914;28;20196;-73
2022/05/26 06:04:25;;;;;;;50.27;30.20;;;;;;;22.81;100.00;63241.47;5090173;28;20666;-73
2022/05/26 06:06:53;;;;;;;55.33;30.40;;;;;;;22.87;100.00;63247.97;5092147;28;20327;-74
2022/05/26 06:09:23;;;;;;;64.17;30.83;;;;;;;22.44;100.00;63202.44;5092018;28;20199;-73
2022/05/26 06:11:50;;;;;;;52.57;29.60;;;;;;;22.89;100.00;63250.16;5091857;28;20269;-74
2022/05/26 06:14:19;;;;;;;49.50;29.33;;;;;;;22.68;100.00;63228.47;5091848;28;20282;-72
2022/05/26 06:16:46;;;;;;;51.07;28.27;;;;;;;22.26;100.00;63182.94;5091850;28;20678;-73
2022/05/26 06:19:13;;;;;;;55.37;30.50;;;;;;;22.76;100.00;63239.19;5091957;28;20729;-71
2022/05/26 06:21:40;;;;;;;58.03;32.33;;;;;;;22.69;100.00;63229.03;5092130;28;20207;-74
2022/05/26 06:24:09;;;;;;;53.30;30.70;;;;;;;22.71;100.00;63231.19;5091708;28;20722;-73
2022/05/26 06:26:38;;;;;;;54.23;32.10;;;;;;;22.83;100.00;63246.25;5091441;28;20230;-74
2022/05/26 06:37:19;;;;;;;53.87;31.43;;;;;;;22.77;100.00;63237.16;5092007;28;20202;-74
2022/05/26 06:39:46;;;;;;;51.23;31.00;;;;;;;23.14;100.00;63272.59;5091788;28;20685;-72
2022/05/26 06:42:14;;;;;;;53.23;29.87;;;;;;;23.13;100.00;63276.16;5091597;28;20296;-74
2022/05/26 06:44:43;;;;;;;45.83;28.47;;;;;;;23.26;100.00;63285.06;5091842;28;20200;-74
2022/05/26 06:47:12;;;;;;;47.77;28.13;;;;;;;23.16;100.00;63279.44;5091495;28;20223;-75
2022/05/26 06:49:41;;;;;;;48.07;28.17;;;;;;;23.17;100.00;63280.50;5091481;28;20199;-74
2022/05/26 06:52:09;;;;;;;48.77;27.20;;;;;;;23.47;100.00;63310.44;5091686;28;20222;-73
2022/05/26 06:54:41;;;;;;;47.43;27.27;;;;;;;23.60;100.00;63327.16;5092044;28;20743;-74
2022/05/26 06:57:11;;;;;;;43.37;26.30;;;;;;;23.79;100.00;63347.75;5091863;28;20199;-73
2022/05/26 06:59:41;;;;;;;40.53;25.20;;;;;;;24.20;100.00;63389.66;5091585;28;20199;-73
2022/05/26 07:02:12;;;;;;;39.47;23.33;;;;;;;24.74;100.00;63452.41;5091626;28;20622;-73
2022/05/26 07:04:40;;;;;;;37.80;21.87;;;;;;;24.61;100.00;63435.69;5093061;28;20280;-74
2022/05/26 07:07:08;;;;;;;36.20;21.43;;;;;;;24.41;100.00;63409.28;5093548;28;20235;-75
2022/05/26 07:09:35;;;;;;;36.30;21.57;;;;;;;24.70;100.00;63448.03;5091369;28;20557;-73
2022/05/26 07:12:01;;;;;;;37.73;21.77;;;;;;;24.89;100.00;63466.09;5091397;28;20196;-75
2022/05/26 07:14:29;;;;;;;30.07;19.43;;;;;;;25.09;100.00;63490.41;5091326;28;20245;-74
2022/05/26 07:16:57;;;;;;;42.23;20.27;;;;;;;25.52;100.00;63533.97;5094417;28;20206;-74
2022/05/26 07:19:24;;;;;;;29.63;18.17;;;;;;;25.61;100.00;63538.53;5095116;28;20200;-74
2022/05/26 07:21:51;;;;;;;34.10;18.37;;;;;;;26.01;100.00;63584.06;5094913;28;20205;-74
2022/05/26 07:24:19;;;;;;;35.73;19.30;;;;;;;26.10;100.00;63596.50;5093865;28;20206;-72
2022/05/26 07:26:46;;;;;;;40.93;18.83;;;;;;;25.95;100.00;63578.66;5094898;28;20751;-76
2022/05/26 07:29:14;;;;;;;30.23;18.00;;;;;;;25.89;100.00;63571.56;5094611;28;20203;-72
2022/05/26 07:31:41;;;;;;;29.80;17.10;;;;;;;26.35;100.00;63623.66;5094860;28;20204;-73
2022/05/26 07:34:10;;;;;;;33.03;20.30;;;;;;;26.52;100.00;63639.53;5094702;28;20568;-73
2022/05/26 07:42:09;;;;;;;35.87;20.77;;;;;;;25.65;100.00;63546.06;5094774;28;20250;-73
2022/05/26 07:44:39;;;;;;;35.20;20.57;;;;;;;25.82;100.00;63572.34;5094673;28;20624;-74
2022/05/26 07:47:07;;;;;;;36.60;18.33;;;;;;;26.25;100.00;63612.78;5094542;28;20282;-73
2022/05/26 07:49:38;;;;;;;33.87;19.03;;;;;;;26.47;100.00;63634.09;5094389;28;20249;-76
2022/05/26 07:52:06;;;;;;;36.50;18.23;;;;;;;26.67;100.00;63658.44;5094379;28;20629;-74
2022/05/26 07:54:33;;;;;;;30.17;16.57;;;;;;;26.67;100.00;63656.38;5094524;28;20266;-74
2022/05/26 07:57:01;;;;;;;26.87;16.60;;;;;;;27.08;100.00;63702.53;5097427;28;20191;-72
2022/05/26 07:59:30;;;;;;;32.80;16.37;;;;;;;27.56;100.00;63754.78;5095137;28;20196;-75
2022/05/26 08:01:59;;;;;;;42.60;16.43;;;;;;;27.66;100.00;63767.72;5094454;28;20257;-75
2022/05/26 08:04:26;;;;;;;28.70;14.70;;;;;;;27.80;100.00;63777.72;5094056;28;20199;-73
2022/05/26 08:06:54;;;;;;;26.57;13.90;;;;;;;28.04;100.00;63809.09;5094038;28;20293;-72
2022/05/26 08:09:24;;;;;;;28.40;12.40;;;;;;;28.37;100.00;63842.44;5093909;28;20204;-75
2022/05/26 08:11:51;;;;;;;21.97;8.53;;;;;;;28.44;100.00;63847.41;5094351;28;20273;-74
2022/05/26 08:14:19;;;;;;;19.73;6.10;;;;;;;28.74;100.00;63885.34;5075849;28;20199;-74
2022/05/26 08:16:45;;;;;;;17.10;5.17;;;;;;;28.82;100.00;63891.44;5094118;28;20203;-73
2022/05/26 08:19:12;;;;;;;11.10;5.13;;;;;;;28.96;100.00;63909.31;5094000;28;20207;-76
2022/05/26 08:21:39;;;;;;;12.67;5.20;;;;;;;29.09;100.00;63920.88;5093988;28;20554;-73
2022/05/26 08:24:09;;;;;;;16.67;4.63;;;;;;;29.08;100.00;63919.78;5093815;28;20654;-76
2022/05/26 08:26:36;;;;;;;19.93;5.23;;;;;;;29.27;100.00;63939.41;5093410;28;20697;-73
2022/05/26 08:29:03;;;;;;;11.97;4.40;;;;;;;29.12;100.00;63929.38;5093829;28;20195;-73
2022/05/26 08:31:29;;;;;;;13.13;5.20;;;;;;;29.53;100.00;63967.75;5093752;28;20203;-75
2022/05/26 08:33:56;;;;;;;25.07;5.20;;;;;;;29.84;100.00;64001.56;5093742;28;20256;-73
2022/05/26 08:36:25;;;;;;;15.93;4.60;;;;;;;30.19;100.00;64037.09;5093557;28;20288;-73
2022/05/26 08:38:52;;;;;;;14.47;5.13;;;;;;;30.39;100.00;64056.31;5093892;28;20202;-74
2022/05/26 08:41:24;;;;;;;10.80;4.73;;;;;;;30.26;100.00;64046.81;5093330;28;20291;-75
2022/05/26 08:43:57;;;;;;;10.20;4.73;;;;;;;30.31;100.00;64052.84;5075535;28;20223;-75
2022/05/26 08:46:26;;;;;;;14.50;5.07;;;;;;;29.77;100.00;63993.94;5093305;28;20395;-75
2022/05/26 08:48:59;;;;;;;11.77;5.00;;;;;;;30.25;100.00;64045.72;5093283;28;20612;-74
2022/05/26 08:51:41;;;;;;;12.33;4.87;;;;;;;30.09;100.00;64028.81;5093641;28;20205;-73
2022/05/26 08:54:15;;;;;;;13.70;5.03;;;;;;;30.18;100.00;64043.91;5093490;28;20637;-74
2022/05/26 08:56:47;;;;;;;10.23;4.90;;;;;;;30.04;100.00;64028.63;5093633;28;20254;-73
2022/05/26 08:59:17;;;;;;;18.97;4.93;;;;;;;29.58;100.00;63973.22;5093054;28;20667;-73
2022/05/26 09:01:45;;;;;;;15.90;5.27;;;;;;;29.52;100.00;63969.28;5093211;28;20196;-74
2022/05/26 09:04:12;;;;;;;8.30;3.87;;;;;;;29.60;100.00;63972.75;5093143;28;20204;-73
2022/05/26 09:15:07;;;;;;;13.77;5.00;;;;;;;29.89;100.00;64007.00;5092855;28;20253;-74
2022/05/26 09:17:34;;;;;;;16.07;5.20;;;;;;;30.03;100.00;64022.28;5093056;28;20288;-74
2022/05/26 09:20:05;;;;;;;14.17;4.83;;;;;;;29.74;100.00;63991.19;5092387;28;20200;-75
2022/05/26 09:22:36;;;;;;;14.80;5.33;;;;;;;29.56;100.00;63971.56;5092766;28;20686;-73
2022/05/26 09:25:03;;;;;;;13.43;5.30;;;;;;;29.48;100.00;63962.31;5092500;28;20200;-76
2022/05/26 09:27:34;;;;;;;10.53;4.40;;;;;;;29.62;100.00;63978.09;5092529;28;20227;-73
2022/05/26 09:30:18;;;;;;;12.23;5.20;;;;;;;30.13;100.00;64030.56;5092561;28;20204;-76
2022/05/26 09:32:45;;;;;;;12.70;5.00;;;;;;;30.61;100.00;64085.56;5092116;28;20200;-73
2022/05/26 09:35:16;;;;;;;8.57;4.57;;;;;;;29.96;100.00;64014.66;5092045;28;20308;-73
2022/05/26 09:37:46;;;;;;;11.90;4.83;;;;;;;30.17;100.00;64037.53;5091847;28;20658;-75
2022/05/26 09:40:20;;;;;;;9.27;4.60;;;;;;;30.35;100.00;64051.38;5091920;28;20202;-75
2022/05/26 09:42:52;;;;;;;12.43;4.77;;;;;;;30.50;100.00;64073.56;5092175;28;20310;-75
2022/05/26 09:45:20;;;;;;;24.83;6.40;;;;;;;30.81;100.00;64102.13;5092148;28;20223;-75
2022/05/26 09:47:53;;;;;;;13.23;4.50;;;;;;;30.50;100.00;64070.94;5091956;28;20733;-76
2022/05/26 09:50:41;;;;;;;12.67;4.83;;;;;;;30.22;100.00;64043.00;5092005;28;20211;-74
2022/05/26 09:53:11;;;;;;;11.77;4.63;;;;;;;30.19;100.00;64039.19;5092182;28;20254;-76
2022/05/26 09:55:45;;;;;;;20.53;5.17;;;;;;;30.29;100.00;64050.66;5092037;28;20725;-75
2022/05/26 09:58:15;;;;;;;12.57;4.70;;;;;;;30.57;100.00;64081.19;5092244;28;20202;-76
2022/05/26 10:00:44;;;;;;;13.10;4.57;;;;;;;30.92;100.00;64118.88;5092213;28;20205;-77
2022/05/26 10:03:23;;;;;;;9.87;4.87;;;;;;;30.96;100.00;64123.22;5092014;28;20223;-74
2022/05/26 10:06:03;;;;;;;9.53;4.07;;;;;;;31.02;100.00;64129.78;5092099;28;20247;-73
2022/05/26 10:08:39;;;;;;;12.60;4.37;;;;;;;30.86;100.00;64111.75;5091800;28;20702;-73
2022/05/26 10:11:12;;;;;;;12.47;4.07;;;;;;;30.61;100.00;64085.56;5092205;28;20684;-73
2022/05/26 10:14:01;;;;;;;12.33;4.17;;;;;;;30.58;100.00;64082.28;5091964;28;20253;-74
2022/05/26 10:16:35;;;;;;;11.67;4.13;;;;;;;30.69;100.00;64094.28;5091598;28;20633;-76
2022/05/26 10:19:13;;;;;;;16.70;4.93;;;;;;;30.94;100.00;64121.03;5091985;28;20640;-74
2022/05/26 10:21:53;;;;;;;18.30;5.07;;;;;;;31.40;100.00;64170.72;5091649;28;20204;-74
2022/05/26 10:24:41;;;;;;;20.40;5.10;;;;;;;31.59;100.00;64194.13;5091591;28;20669;-75
2022/05/26 10:27:20;;;;;;;12.33;4.80;;;;;;;31.92;100.00;64224.88;5091504;28;20230;-74
2022/05/26 10:30:07;;;;;;;9.47;4.50;;;;;;;31.22;100.00;64153.69;5091964;28;20229;-74
2022/05/26 10:32:44;;;;;;;18.87;4.53;;;;;;;31.62;100.00;64192.09;5091686;28;20225;-74
2022/05/26 10:35:33;;;;;;;13.03;4.10;;;;;;;32.12;100.00;64249.38;5091278;28;20271;-76
2022/05/26 10:38:20;;;;;;;12.77;4.13;;;;;;;32.09;95.51;64248.19;5091551;28;20233;-76
2022/05/26 10:40:55;;;;;;;9.27;3.60;;;;;;;32.25;82.77;64263.03;5091704;28;20257;-73
2022/05/26 10:43:26;;;;;;;20.97;4.83;;;;;;;32.51;73.51;64293.53;5091389;28;20205;-74
2022/05/26 10:45:56;;;;;;;17.80;5.03;;;;;;;32.60;75.70;64298.63;5091279;28;20249;-74
2022/05/26 10:48:31;;;;;;;8.70;3.60;;;;;;;32.02;67.58;64243.72;5091316;28;20239;-74
2022/05/26 10:51:05;;;;;;;11.80;3.43;;;;;;;32.37;68.97;64276.13;5095074;28;20198;-73
2022/05/26 10:53:40;;;;;;;8.97;3.80;;;;;;;32.77;62.85;64319.31;5095582;28;20244;-74
2022/05/26 10:56:19;;;;;;;13.67;3.77;;;;;;;32.79;65.26;64322.03;5095382;28;20278;-74
2022/05/26 10:58:48;;;;;;;9.67;3.37;;;;;;;32.62;63.82;64302.94;5095676;28;20207;-74
2022/05/26 11:01:36;;;;;;;14.20;3.70;;;;;;;32.26;64.20;64264.66;5095328;28;20275;-74
2022/05/26 11:04:14;;;;;;;11.10;3.37;;;;;;;31.95;62.49;64220.25;5077459;28;20285;-75
2022/05/26 11:06:44;;;;;;;11.63;3.37;;;;;;;31.92;56.59;64226.94;5098220;28;20227;-73
2022/05/26 11:09:16;;;;;;;9.60;3.20;;;;;;;32.34;54.25;64273.41;5095880;28;20743;-76
2022/05/26 11:11:47;;;;;;;7.33;2.90;;;;;;;32.46;54.39;64282.81;5095561;28;20286;-74
2022/05/26 11:17:26;;;;;;;15.43;4.33;;;;;;;33.12;67.36;64357.59;5095347;28;20297;-74
2022/05/26 11:20:01;;;;;;;13.00;3.80;;;;;;;33.17;67.39;64363.06;5095252;28;20200;-74
2022/05/26 11:22:29;;;;;;;16.30;4.20;;;;;;;32.81;70.82;64321.03;5093866;28;20245;-74
2022/05/26 11:25:00;;;;;;;26.27;4.60;;;;;;;32.83;79.25;64325.88;5093789;28;20240;-75
2022/05/26 11:27:32;;;;;;;21.67;4.73;;;;;;;32.96;79.44;64340.63;5094750;28;20655;-75
2022/05/26 11:30:05;;;;;;;13.00;3.80;;;;;;;32.57;80.55;64298.00;5095385;28;20250;-73
2022/05/26 11:38:17;;;;;;;11.23;3.80;;;;;;;33.18;64.24;64364.16;5094916;28;20205;-75
2022/05/26 11:40:47;;;;;;;12.53;3.70;;;;;;;33.17;61.51;64363.06;5095165;28;20266;-74
2022/05/26 11:43:24;;;;;;;10.10;3.53;;;;;;;33.50;60.75;64395.97;5094576;28;20233;-73
2022/05/26 11:45:54;;;;;;;9.10;3.50;;;;;;;33.53;63.59;64402.44;5094890;28;20662;-73
2022/05/26 11:48:41;;;;;;;13.50;4.40;;;;;;;33.63;66.18;64412.81;5094716;28;20291;-75
2022/05/26 11:51:34;;;;;;;9.57;3.93;;;;;;;32.92;70.57;64333.06;5094479;28;20302;-75
2022/05/26 11:54:01;;;;;;;12.17;3.83;;;;;;;32.37;70.69;64276.13;5094633;28;20254;-73
2022/05/26 11:56:43;;;;;;;12.73;4.80;;;;;;;32.00;78.46;64236.25;5094441;28;20199;-77
2022/05/26 11:59:22;;;;;;;11.17;4.10;;;;;;;31.77;83.16;64211.13;5094525;28;20249;-75
2022/05/26 12:02:24;;;;;;;13.70;4.47;;;;;;;31.19;80.21;64145.16;5089968;28;20639;-76
2022/05/26 12:04:53;;;;;;;13.63;4.10;;;;;;;31.22;83.09;64154.25;5090825;28;20677;-73
2022/05/26 12:07:40;;;;;;;10.77;3.80;;;;;;;31.64;81.98;64196.94;5094246;28;20683;-75
2022/05/26 12:10:20;;;;;;;13.93;4.20;;;;;;;31.58;82.53;64190.38;5094099;28;20302;-76
2022/05/26 12:12:48;;;;;;;11.77;3.80;;;;;;;31.50;78.51;64184.28;5094137;28;20662;-75
2022/05/26 12:15:21;;;;;;;14.03;3.70;;;;;;;31.15;80.31;64143.44;5092499;28;20210;-74
2022/05/26 12:17:50;;;;;;;15.10;3.73;;;;;;;30.79;80.70;64107.84;5094011;28;20207;-75